sensor_id;sensor_type;location;lat;lon;timestamp;P1;durP1;ratioP1;P2;durP2;ratioP2
57800;SDS011;43627;42.728;23.256;2023-07-29T00:01:22;3.30;;;2.20;;
57800;SDS011;43627;42.728;23.256;2023-07-29T00:03:48;3.65;;;1.77;;
57800;SDS011;43627;42.728;23.256;2023-07-29T00:06:15;4.10;;;2.47;;
57800;SDS011;43627;42.728;23.256;2023-07-29T00:08:42;4.10;;;2.30;;
57800;SDS011;43627;42.728;23.256;2023-07-29T00:11:08;5.50;;;2.40;;
57800;SDS011;43627;42.728;23.256;2023-07-29T00:13:35;3.13;;;1.75;;
57800;SDS011;43627;42.728;23.256;2023-07-29T00:16:02;2.78;;;1.80;;
57800;SDS011;43627;42.728;23.256;2023-07-29T00:18:28;2.90;;;1.80;;
57800;SDS011;43627;42.728;23.256;2023-07-29T00:20:55;2.88;;;1.80;;
57800;SDS011;43627;42.728;23.256;2023-07-29T00:23:22;3.17;;;1.88;;
57800;SDS011;43627;42.728;23.256;2023-07-29T00:25:48;3.25;;;2.08;;
57800;SDS011;43627;42.728;23.256;2023-07-29T00:28:15;2.97;;;1.98;;
57800;SDS011;43627;42.728;23.256;2023-07-29T00:30:42;4.97;;;2.50;;
57800;SDS011;43627;42.728;23.256;2023-07-29T00:33:09;4.78;;;2.20;;
57800;SDS011;43627;42.728;23.256;2023-07-29T00:35:36;4.43;;;2.30;;
57800;SDS011;43627;42.728;23.256;2023-07-29T00:38:02;4.47;;;2.55;;
57800;SDS011;43627;42.728;23.256;2023-07-29T00:40:29;3.67;;;1.80;;
57800;SDS011;43627;42.728;23.256;2023-07-29T00:42:57;3.85;;;1.85;;
57800;SDS011;43627;42.728;23.256;2023-07-29T00:45:24;5.90;;;2.20;;
57800;SDS011;43627;42.728;23.256;2023-07-29T00:47:53;5.50;;;2.65;;
57800;SDS011;43627;42.728;23.256;2023-07-29T00:50:20;5.65;;;1.70;;
57800;SDS011;43627;42.728;23.256;2023-07-29T00:52:48;5.90;;;2.42;;
57800;SDS011;43627;42.728;23.256;2023-07-29T00:55:15;4.53;;;1.77;;
57800;SDS011;43627;42.728;23.256;2023-07-29T00:57:42;3.55;;;2.28;;
57800;SDS011;43627;42.728;23.256;2023-07-29T01:00:14;4.60;;;3.05;;
57800;SDS011;43627;42.728;23.256;2023-07-29T01:02:42;9.73;;;5.07;;
57800;SDS011;43627;42.728;23.256;2023-07-29T01:05:11;4.88;;;2.60;;
57800;SDS011;43627;42.728;23.256;2023-07-29T01:07:44;5.85;;;2.17;;
57800;SDS011;43627;42.728;23.256;2023-07-29T01:10:21;5.65;;;1.90;;
57800;SDS011;43627;42.728;23.256;2023-07-29T01:16:13;3.78;;;2.50;;
57800;SDS011;43627;42.728;23.256;2023-07-29T01:18:42;5.18;;;2.05;;
57800;SDS011;43627;42.728;23.256;2023-07-29T01:21:13;3.58;;;2.15;;
57800;SDS011;43627;42.728;23.256;2023-07-29T01:23:43;3.15;;;2.30;;
57800;SDS011;43627;42.728;23.256;2023-07-29T01:26:09;4.82;;;2.25;;
57800;SDS011;43627;42.728;23.256;2023-07-29T01:28:36;3.83;;;2.15;;
57800;SDS011;43627;42.728;23.256;2023-07-29T01:36:56;3.53;;;2.40;;
57800;SDS011;43627;42.728;23.256;2023-07-29T01:39:29;4.70;;;2.53;;
57800;SDS011;43627;42.728;23.256;2023-07-29T01:41:59;2.28;;;1.77;;
57800;SDS011;43627;42.728;23.256;2023-07-29T01:44:26;3.35;;;2.15;;
57800;SDS011;43627;42.728;23.256;2023-07-29T01:46:55;3.78;;;2.10;;
57800;SDS011;43627;42.728;23.256;2023-07-29T01:49:22;2.85;;;2.13;;
57800;SDS011;43627;42.728;23.256;2023-07-29T01:51:48;4.50;;;2.20;;
57800;SDS011;43627;42.728;23.256;2023-07-29T01:54:15;3.35;;;1.85;;
57800;SDS011;43627;42.728;23.256;2023-07-29T01:56:42;2.38;;;1.95;;
57800;SDS011;43627;42.728;23.256;2023-07-29T01:59:08;3.75;;;2.13;;
57800;SDS011;43627;42.728;23.256;2023-07-29T02:01:35;3.80;;;2.38;;
57800;SDS011;43627;42.728;23.256;2023-07-29T02:04:02;3.70;;;2.78;;
57800;SDS011;43627;42.728;23.256;2023-07-29T02:06:29;2.67;;;2.03;;
57800;SDS011;43627;42.728;23.256;2023-07-29T02:08:55;3.20;;;2.38;;
57800;SDS011;43627;42.728;23.256;2023-07-29T02:11:22;3.78;;;2.17;;
57800;SDS011;43627;42.728;23.256;2023-07-29T02:13:54;3.70;;;2.05;;
57800;SDS011;43627;42.728;23.256;2023-07-29T02:16:21;3.58;;;2.20;;
57800;SDS011;43627;42.728;23.256;2023-07-29T02:18:49;4.80;;;2.25;;
57800;SDS011;43627;42.728;23.256;2023-07-29T02:21:21;3.42;;;2.03;;
57800;SDS011;43627;42.728;23.256;2023-07-29T02:23:48;4.13;;;2.58;;
57800;SDS011;43627;42.728;23.256;2023-07-29T02:26:15;4.78;;;2.50;;
57800;SDS011;43627;42.728;23.256;2023-07-29T02:28:43;5.07;;;3.30;;
57800;SDS011;43627;42.728;23.256;2023-07-29T02:31:17;2.53;;;2.10;;
57800;SDS011;43627;42.728;23.256;2023-07-29T02:33:47;5.72;;;2.25;;
57800;SDS011;43627;42.728;23.256;2023-07-29T02:36:15;4.38;;;2.30;;
57800;SDS011;43627;42.728;23.256;2023-07-29T02:38:43;4.15;;;2.25;;
57800;SDS011;43627;42.728;23.256;2023-07-29T02:41:10;3.50;;;1.92;;
57800;SDS011;43627;42.728;23.256;2023-07-29T02:43:38;3.15;;;2.40;;
57800;SDS011;43627;42.728;23.256;2023-07-29T02:46:07;3.97;;;2.55;;
57800;SDS011;43627;42.728;23.256;2023-07-29T02:48:34;6.07;;;2.47;;
57800;SDS011;43627;42.728;23.256;2023-07-29T02:51:01;9.98;;;5.40;;
57800;SDS011;43627;42.728;23.256;2023-07-29T02:53:27;3.78;;;2.45;;
57800;SDS011;43627;42.728;23.256;2023-07-29T02:55:54;3.38;;;2.33;;
57800;SDS011;43627;42.728;23.256;2023-07-29T02:58:21;4.20;;;2.67;;
57800;SDS011;43627;42.728;23.256;2023-07-29T03:00:47;5.70;;;2.80;;
57800;SDS011;43627;42.728;23.256;2023-07-29T03:03:15;5.57;;;3.03;;
57800;SDS011;43627;42.728;23.256;2023-07-29T03:05:42;8.38;;;3.38;;
57800;SDS011;43627;42.728;23.256;2023-07-29T03:08:09;6.22;;;3.00;;
57800;SDS011;43627;42.728;23.256;2023-07-29T03:10:35;3.67;;;2.70;;
57800;SDS011;43627;42.728;23.256;2023-07-29T03:13:02;3.47;;;2.70;;
57800;SDS011;43627;42.728;23.256;2023-07-29T03:15:29;5.50;;;2.80;;
57800;SDS011;43627;42.728;23.256;2023-07-29T03:17:56;4.45;;;2.65;;
57800;SDS011;43627;42.728;23.256;2023-07-29T03:20:23;5.50;;;2.50;;
57800;SDS011;43627;42.728;23.256;2023-07-29T03:22:49;4.20;;;2.80;;
57800;SDS011;43627;42.728;23.256;2023-07-29T03:25:16;5.75;;;3.38;;
57800;SDS011;43627;42.728;23.256;2023-07-29T03:27:43;7.05;;;2.92;;
57800;SDS011;43627;42.728;23.256;2023-07-29T03:30:09;2.78;;;1.98;;
57800;SDS011;43627;42.728;23.256;2023-07-29T03:32:39;4.28;;;2.80;;
57800;SDS011;43627;42.728;23.256;2023-07-29T03:35:09;5.55;;;2.97;;
57800;SDS011;43627;42.728;23.256;2023-07-29T03:37:36;7.07;;;3.00;;
57800;SDS011;43627;42.728;23.256;2023-07-29T03:40:03;9.80;;;3.22;;
57800;SDS011;43627;42.728;23.256;2023-07-29T03:42:30;11.57;;;2.78;;
57800;SDS011;43627;42.728;23.256;2023-07-29T03:44:57;8.77;;;2.78;;
57800;SDS011;43627;42.728;23.256;2023-07-29T03:47:24;3.35;;;2.40;;
57800;SDS011;43627;42.728;23.256;2023-07-29T03:49:51;5.03;;;2.65;;
57800;SDS011;43627;42.728;23.256;2023-07-29T03:52:17;6.68;;;2.70;;
57800;SDS011;43627;42.728;23.256;2023-07-29T03:54:44;9.55;;;2.78;;
57800;SDS011;43627;42.728;23.256;2023-07-29T03:57:11;4.88;;;2.35;;
57800;SDS011;43627;42.728;23.256;2023-07-29T03:59:38;3.75;;;2.33;;
57800;SDS011;43627;42.728;23.256;2023-07-29T04:02:05;3.92;;;2.25;;
57800;SDS011;43627;42.728;23.256;2023-07-29T04:04:31;3.05;;;2.05;;
57800;SDS011;43627;42.728;23.256;2023-07-29T04:06:58;3.97;;;2.15;;
57800;SDS011;43627;42.728;23.256;2023-07-29T04:09:25;3.38;;;2.20;;
57800;SDS011;43627;42.728;23.256;2023-07-29T04:11:51;2.83;;;2.20;;
57800;SDS011;43627;42.728;23.256;2023-07-29T04:14:18;5.25;;;2.22;;
57800;SDS011;43627;42.728;23.256;2023-07-29T04:16:45;3.95;;;2.33;;
57800;SDS011;43627;42.728;23.256;2023-07-29T04:19:15;9.43;;;2.53;;
57800;SDS011;43627;42.728;23.256;2023-07-29T04:21:42;3.80;;;2.47;;
57800;SDS011;43627;42.728;23.256;2023-07-29T04:24:09;4.47;;;2.50;;
57800;SDS011;43627;42.728;23.256;2023-07-29T04:26:35;4.25;;;2.05;;
57800;SDS011;43627;42.728;23.256;2023-07-29T04:29:02;4.13;;;2.15;;
57800;SDS011;43627;42.728;23.256;2023-07-29T04:31:29;5.97;;;2.13;;
57800;SDS011;43627;42.728;23.256;2023-07-29T04:33:56;3.13;;;2.22;;
57800;SDS011;43627;42.728;23.256;2023-07-29T04:36:22;4.85;;;2.17;;
57800;SDS011;43627;42.728;23.256;2023-07-29T04:38:49;3.45;;;1.70;;
57800;SDS011;43627;42.728;23.256;2023-07-29T04:41:16;3.15;;;1.83;;
57800;SDS011;43627;42.728;23.256;2023-07-29T04:43:42;3.53;;;2.00;;
57800;SDS011;43627;42.728;23.256;2023-07-29T04:46:09;2.42;;;1.80;;
57800;SDS011;43627;42.728;23.256;2023-07-29T04:48:36;4.47;;;2.40;;
57800;SDS011;43627;42.728;23.256;2023-07-29T04:51:02;3.72;;;1.80;;
57800;SDS011;43627;42.728;23.256;2023-07-29T04:53:29;3.28;;;2.40;;
57800;SDS011;43627;42.728;23.256;2023-07-29T04:55:56;3.67;;;2.30;;
57800;SDS011;43627;42.728;23.256;2023-07-29T04:58:23;4.53;;;3.17;;
57800;SDS011;43627;42.728;23.256;2023-07-29T05:00:49;3.42;;;2.15;;
57800;SDS011;43627;42.728;23.256;2023-07-29T05:03:16;4.13;;;2.92;;
57800;SDS011;43627;42.728;23.256;2023-07-29T05:05:43;4.68;;;3.22;;
57800;SDS011;43627;42.728;23.256;2023-07-29T05:08:09;4.80;;;2.58;;
57800;SDS011;43627;42.728;23.256;2023-07-29T05:10:36;4.85;;;2.67;;
57800;SDS011;43627;42.728;23.256;2023-07-29T05:13:03;6.45;;;2.30;;
57800;SDS011;43627;42.728;23.256;2023-07-29T05:15:29;8.07;;;2.15;;
57800;SDS011;43627;42.728;23.256;2023-07-29T05:17:56;5.22;;;2.50;;
57800;SDS011;43627;42.728;23.256;2023-07-29T05:20:23;2.72;;;2.08;;
57800;SDS011;43627;42.728;23.256;2023-07-29T05:22:50;5.72;;;2.60;;
57800;SDS011;43627;42.728;23.256;2023-07-29T05:25:16;9.60;;;3.08;;
57800;SDS011;43627;42.728;23.256;2023-07-29T05:27:43;6.70;;;4.40;;
57800;SDS011;43627;42.728;23.256;2023-07-29T05:30:10;5.80;;;3.38;;
57800;SDS011;43627;42.728;23.256;2023-07-29T05:32:37;7.80;;;3.00;;
57800;SDS011;43627;42.728;23.256;2023-07-29T05:35:04;4.47;;;3.17;;
57800;SDS011;43627;42.728;23.256;2023-07-29T05:37:31;4.55;;;2.30;;
57800;SDS011;43627;42.728;23.256;2023-07-29T05:39:58;3.00;;;2.25;;
57800;SDS011;43627;42.728;23.256;2023-07-29T05:42:25;6.05;;;2.88;;
57800;SDS011;43627;42.728;23.256;2023-07-29T05:44:51;3.35;;;2.60;;
57800;SDS011;43627;42.728;23.256;2023-07-29T05:47:18;8.25;;;3.50;;
57800;SDS011;43627;42.728;23.256;2023-07-29T05:49:45;5.75;;;3.75;;
57800;SDS011;43627;42.728;23.256;2023-07-29T05:52:11;10.05;;;3.55;;
57800;SDS011;43627;42.728;23.256;2023-07-29T05:54:38;4.20;;;2.75;;
57800;SDS011;43627;42.728;23.256;2023-07-29T05:57:05;4.57;;;3.38;;
57800;SDS011;43627;42.728;23.256;2023-07-29T05:59:32;5.13;;;3.25;;
57800;SDS011;43627;42.728;23.256;2023-07-29T06:01:58;8.45;;;3.35;;
57800;SDS011;43627;42.728;23.256;2023-07-29T06:04:25;3.97;;;3.05;;
57800;SDS011;43627;42.728;23.256;2023-07-29T06:06:52;6.47;;;3.92;;
57800;SDS011;43627;42.728;23.256;2023-07-29T06:09:18;7.63;;;2.88;;
57800;SDS011;43627;42.728;23.256;2023-07-29T06:11:45;7.55;;;3.50;;
57800;SDS011;43627;42.728;23.256;2023-07-29T06:14:12;6.10;;;2.65;;
57800;SDS011;43627;42.728;23.256;2023-07-29T06:16:39;6.07;;;2.85;;
57800;SDS011;43627;42.728;23.256;2023-07-29T06:19:05;6.82;;;2.88;;
57800;SDS011;43627;42.728;23.256;2023-07-29T06:21:35;9.32;;;3.65;;
57800;SDS011;43627;42.728;23.256;2023-07-29T06:24:02;3.92;;;2.78;;
57800;SDS011;43627;42.728;23.256;2023-07-29T06:26:29;4.95;;;3.20;;
57800;SDS011;43627;42.728;23.256;2023-07-29T06:28:56;7.03;;;3.78;;
57800;SDS011;43627;42.728;23.256;2023-07-29T06:31:22;7.47;;;4.03;;
57800;SDS011;43627;42.728;23.256;2023-07-29T06:33:49;6.80;;;4.05;;
57800;SDS011;43627;42.728;23.256;2023-07-29T06:36:16;4.38;;;3.67;;
57800;SDS011;43627;42.728;23.256;2023-07-29T06:38:43;5.85;;;3.70;;
57800;SDS011;43627;42.728;23.256;2023-07-29T06:41:09;4.18;;;2.40;;
57800;SDS011;43627;42.728;23.256;2023-07-29T06:43:40;4.97;;;2.67;;
57800;SDS011;43627;42.728;23.256;2023-07-29T06:46:07;6.00;;;2.80;;
57800;SDS011;43627;42.728;23.256;2023-07-29T06:48:33;5.60;;;2.70;;
57800;SDS011;43627;42.728;23.256;2023-07-29T06:51:00;8.88;;;3.08;;
57800;SDS011;43627;42.728;23.256;2023-07-29T06:53:28;4.85;;;2.83;;
57800;SDS011;43627;42.728;23.256;2023-07-29T06:55:58;3.15;;;2.67;;
57800;SDS011;43627;42.728;23.256;2023-07-29T06:58:25;4.13;;;3.13;;
57800;SDS011;43627;42.728;23.256;2023-07-29T07:00:51;3.25;;;2.60;;
57800;SDS011;43627;42.728;23.256;2023-07-29T07:03:22;6.30;;;3.17;;
57800;SDS011;43627;42.728;23.256;2023-07-29T07:05:49;5.07;;;2.83;;
57800;SDS011;43627;42.728;23.256;2023-07-29T07:08:16;3.70;;;2.47;;
57800;SDS011;43627;42.728;23.256;2023-07-29T07:10:43;10.00;;;4.03;;
57800;SDS011;43627;42.728;23.256;2023-07-29T07:13:09;6.60;;;2.58;;
57800;SDS011;43627;42.728;23.256;2023-07-29T07:15:36;3.90;;;2.60;;
57800;SDS011;43627;42.728;23.256;2023-07-29T07:18:02;4.18;;;2.70;;
57800;SDS011;43627;42.728;23.256;2023-07-29T07:20:29;5.43;;;2.85;;
57800;SDS011;43627;42.728;23.256;2023-07-29T07:22:56;5.10;;;3.83;;
57800;SDS011;43627;42.728;23.256;2023-07-29T07:25:22;4.15;;;2.47;;
57800;SDS011;43627;42.728;23.256;2023-07-29T07:27:49;4.80;;;2.08;;
57800;SDS011;43627;42.728;23.256;2023-07-29T07:30:16;2.97;;;2.35;;
57800;SDS011;43627;42.728;23.256;2023-07-29T07:32:43;5.25;;;2.28;;
57800;SDS011;43627;42.728;23.256;2023-07-29T07:35:09;3.20;;;2.10;;
57800;SDS011;43627;42.728;23.256;2023-07-29T07:37:36;2.47;;;2.15;;
57800;SDS011;43627;42.728;23.256;2023-07-29T07:40:03;4.00;;;2.50;;
57800;SDS011;43627;42.728;23.256;2023-07-29T07:42:30;3.63;;;2.38;;
57800;SDS011;43627;42.728;23.256;2023-07-29T07:44:56;7.00;;;2.70;;
57800;SDS011;43627;42.728;23.256;2023-07-29T07:47:23;3.10;;;2.13;;
57800;SDS011;43627;42.728;23.256;2023-07-29T07:49:50;2.78;;;2.10;;
57800;SDS011;43627;42.728;23.256;2023-07-29T07:52:17;5.85;;;2.38;;
57800;SDS011;43627;42.728;23.256;2023-07-29T07:54:44;4.53;;;2.10;;
57800;SDS011;43627;42.728;23.256;2023-07-29T07:57:10;3.53;;;2.10;;
57800;SDS011;43627;42.728;23.256;2023-07-29T07:59:37;6.43;;;2.30;;
57800;SDS011;43627;42.728;23.256;2023-07-29T08:02:04;3.33;;;2.65;;
57800;SDS011;43627;42.728;23.256;2023-07-29T08:04:31;3.03;;;2.15;;
57800;SDS011;43627;42.728;23.256;2023-07-29T08:06:58;3.45;;;2.30;;
57800;SDS011;43627;42.728;23.256;2023-07-29T08:09:24;3.63;;;2.15;;
57800;SDS011;43627;42.728;23.256;2023-07-29T08:11:51;2.67;;;1.90;;
57800;SDS011;43627;42.728;23.256;2023-07-29T08:14:18;3.15;;;2.10;;
57800;SDS011;43627;42.728;23.256;2023-07-29T08:16:44;4.35;;;2.30;;
57800;SDS011;43627;42.728;23.256;2023-07-29T08:19:11;2.33;;;2.05;;
57800;SDS011;43627;42.728;23.256;2023-07-29T08:21:38;2.22;;;1.77;;
57800;SDS011;43627;42.728;23.256;2023-07-29T08:24:04;5.40;;;2.78;;
57800;SDS011;43627;42.728;23.256;2023-07-29T08:26:33;4.25;;;2.38;;
57800;SDS011;43627;42.728;23.256;2023-07-29T08:28:59;3.15;;;1.95;;
57800;SDS011;43627;42.728;23.256;2023-07-29T08:31:26;2.70;;;1.90;;
57800;SDS011;43627;42.728;23.256;2023-07-29T08:33:53;3.90;;;1.90;;
57800;SDS011;43627;42.728;23.256;2023-07-29T08:36:19;7.82;;;2.10;;
57800;SDS011;43627;42.728;23.256;2023-07-29T08:38:46;5.75;;;1.95;;
57800;SDS011;43627;42.728;23.256;2023-07-29T08:41:16;4.03;;;2.05;;
57800;SDS011;43627;42.728;23.256;2023-07-29T08:44:01;2.22;;;1.73;;
57800;SDS011;43627;42.728;23.256;2023-07-29T08:46:38;2.38;;;1.95;;
57800;SDS011;43627;42.728;23.256;2023-07-29T08:49:06;4.22;;;2.25;;
57800;SDS011;43627;42.728;23.256;2023-07-29T08:51:33;5.13;;;1.70;;
57800;SDS011;43627;42.728;23.256;2023-07-29T08:54:01;6.78;;;2.10;;
57800;SDS011;43627;42.728;23.256;2023-07-29T08:56:28;1.55;;;1.45;;
57800;SDS011;43627;42.728;23.256;2023-07-29T08:58:56;4.93;;;1.75;;
57800;SDS011;43627;42.728;23.256;2023-07-29T09:01:24;2.72;;;1.50;;
57800;SDS011;43627;42.728;23.256;2023-07-29T09:03:50;1.63;;;1.17;;
57800;SDS011;43627;42.728;23.256;2023-07-29T09:06:17;3.08;;;1.30;;
57800;SDS011;43627;42.728;23.256;2023-07-29T09:08:45;1.40;;;1.30;;
57800;SDS011;43627;42.728;23.256;2023-07-29T09:11:15;5.90;;;1.63;;
57800;SDS011;43627;42.728;23.256;2023-07-29T09:13:45;2.40;;;1.60;;
57800;SDS011;43627;42.728;23.256;2023-07-29T09:16:12;3.13;;;1.40;;
57800;SDS011;43627;42.728;23.256;2023-07-29T09:18:40;3.80;;;1.60;;
57800;SDS011;43627;42.728;23.256;2023-07-29T09:21:06;2.22;;;1.58;;
57800;SDS011;43627;42.728;23.256;2023-07-29T09:23:40;2.85;;;1.50;;
57800;SDS011;43627;42.728;23.256;2023-07-29T09:26:08;1.17;;;0.98;;
57800;SDS011;43627;42.728;23.256;2023-07-29T09:28:39;1.00;;;0.90;;
57800;SDS011;43627;42.728;23.256;2023-07-29T09:31:07;1.73;;;1.20;;
57800;SDS011;43627;42.728;23.256;2023-07-29T09:33:46;3.42;;;1.13;;
57800;SDS011;43627;42.728;23.256;2023-07-29T09:36:13;2.13;;;0.95;;
57800;SDS011;43627;42.728;23.256;2023-07-29T09:38:40;1.10;;;0.98;;
57800;SDS011;43627;42.728;23.256;2023-07-29T09:41:07;3.40;;;1.17;;
57800;SDS011;43627;42.728;23.256;2023-07-29T09:43:34;1.23;;;0.80;;
57800;SDS011;43627;42.728;23.256;2023-07-29T09:46:01;0.63;;;0.60;;
57800;SDS011;43627;42.728;23.256;2023-07-29T09:48:35;1.75;;;0.80;;
57800;SDS011;43627;42.728;23.256;2023-07-29T09:51:13;0.50;;;0.40;;
57800;SDS011;43627;42.728;23.256;2023-07-29T09:53:44;1.25;;;0.63;;
57800;SDS011;43627;42.728;23.256;2023-07-29T09:56:13;1.98;;;1.17;;
57800;SDS011;43627;42.728;23.256;2023-07-29T09:58:41;0.73;;;0.73;;
57800;SDS011;43627;42.728;23.256;2023-07-29T10:01:09;1.00;;;0.70;;
57800;SDS011;43627;42.728;23.256;2023-07-29T10:03:36;1.38;;;0.90;;
57800;SDS011;43627;42.728;23.256;2023-07-29T10:06:04;1.42;;;0.82;;
57800;SDS011;43627;42.728;23.256;2023-07-29T10:08:32;1.08;;;0.88;;
57800;SDS011;43627;42.728;23.256;2023-07-29T10:11:01;1.33;;;1.05;;
57800;SDS011;43627;42.728;23.256;2023-07-29T10:13:28;0.90;;;0.90;;
57800;SDS011;43627;42.728;23.256;2023-07-29T10:15:55;1.55;;;0.85;;
57800;SDS011;43627;42.728;23.256;2023-07-29T10:18:22;0.98;;;0.73;;
57800;SDS011;43627;42.728;23.256;2023-07-29T10:20:52;1.75;;;0.75;;
57800;SDS011;43627;42.728;23.256;2023-07-29T10:23:20;1.88;;;1.05;;
57800;SDS011;43627;42.728;23.256;2023-07-29T10:25:55;1.20;;;1.00;;
57800;SDS011;43627;42.728;23.256;2023-07-29T10:28:33;1.17;;;1.08;;
57800;SDS011;43627;42.728;23.256;2023-07-29T10:31:02;2.42;;;1.67;;
57800;SDS011;43627;42.728;23.256;2023-07-29T10:33:30;0.70;;;0.70;;
57800;SDS011;43627;42.728;23.256;2023-07-29T10:36:00;1.00;;;0.90;;
57800;SDS011;43627;42.728;23.256;2023-07-29T10:38:28;0.88;;;0.70;;
57800;SDS011;43627;42.728;23.256;2023-07-29T10:40:56;1.15;;;0.60;;
57800;SDS011;43627;42.728;23.256;2023-07-29T10:43:42;1.23;;;0.70;;
57800;SDS011;43627;42.728;23.256;2023-07-29T10:46:18;1.60;;;0.80;;
57800;SDS011;43627;42.728;23.256;2023-07-29T10:54:10;1.35;;;0.90;;
57800;SDS011;43627;42.728;23.256;2023-07-29T10:56:42;1.10;;;0.70;;
57800;SDS011;43627;42.728;23.256;2023-07-29T11:01:39;1.75;;;1.48;;
57800;SDS011;43627;42.728;23.256;2023-07-29T11:09:51;0.43;;;0.40;;
57800;SDS011;43627;42.728;23.256;2023-07-29T11:17:49;0.40;;;0.40;;
57800;SDS011;43627;42.728;23.256;2023-07-29T11:20:29;0.70;;;0.43;;
57800;SDS011;43627;42.728;23.256;2023-07-29T11:22:58;0.65;;;0.50;;
57800;SDS011;43627;42.728;23.256;2023-07-29T11:25:27;0.65;;;0.63;;
57800;SDS011;43627;42.728;23.256;2023-07-29T11:27:56;0.88;;;0.60;;
57800;SDS011;43627;42.728;23.256;2023-07-29T11:30:24;1.60;;;0.98;;
57800;SDS011;43627;42.728;23.256;2023-07-29T11:32:53;0.88;;;0.80;;
57800;SDS011;43627;42.728;23.256;2023-07-29T11:35:21;1.55;;;1.13;;
57800;SDS011;43627;42.728;23.256;2023-07-29T11:37:52;1.60;;;0.90;;
57800;SDS011;43627;42.728;23.256;2023-07-29T11:40:21;0.63;;;0.63;;
57800;SDS011;43627;42.728;23.256;2023-07-29T11:42:49;0.82;;;0.82;;
57800;SDS011;43627;42.728;23.256;2023-07-29T11:45:17;1.00;;;0.65;;
57800;SDS011;43627;42.728;23.256;2023-07-29T11:47:45;1.40;;;0.93;;
57800;SDS011;43627;42.728;23.256;2023-07-29T11:50:13;1.15;;;0.82;;
57800;SDS011;43627;42.728;23.256;2023-07-29T11:52:41;1.48;;;1.13;;
57800;SDS011;43627;42.728;23.256;2023-07-29T11:55:09;0.80;;;0.80;;
57800;SDS011;43627;42.728;23.256;2023-07-29T11:57:38;0.85;;;0.85;;
57800;SDS011;43627;42.728;23.256;2023-07-29T12:00:06;0.90;;;0.80;;
57800;SDS011;43627;42.728;23.256;2023-07-29T12:02:37;2.15;;;0.80;;
57800;SDS011;43627;42.728;23.256;2023-07-29T12:05:06;1.25;;;0.80;;
57800;SDS011;43627;42.728;23.256;2023-07-29T12:07:34;0.68;;;0.60;;
57800;SDS011;43627;42.728;23.256;2023-07-29T12:10:02;1.10;;;0.88;;
57800;SDS011;43627;42.728;23.256;2023-07-29T12:12:30;2.05;;;0.70;;
57800;SDS011;43627;42.728;23.256;2023-07-29T12:14:57;0.80;;;0.80;;
57800;SDS011;43627;42.728;23.256;2023-07-29T12:17:23;0.85;;;0.80;;
57800;SDS011;43627;42.728;23.256;2023-07-29T12:19:53;1.80;;;0.88;;
57800;SDS011;43627;42.728;23.256;2023-07-29T12:22:21;3.65;;;0.82;;
57800;SDS011;43627;42.728;23.256;2023-07-29T12:24:48;1.63;;;0.88;;
57800;SDS011;43627;42.728;23.256;2023-07-29T12:27:19;0.60;;;0.60;;
57800;SDS011;43627;42.728;23.256;2023-07-29T12:29:48;0.75;;;0.75;;
57800;SDS011;43627;42.728;23.256;2023-07-29T12:32:18;1.77;;;1.05;;
57800;SDS011;43627;42.728;23.256;2023-07-29T12:34:45;1.10;;;0.77;;
57800;SDS011;43627;42.728;23.256;2023-07-29T12:37:12;2.17;;;0.70;;
57800;SDS011;43627;42.728;23.256;2023-07-29T12:39:41;0.80;;;0.75;;
57800;SDS011;43627;42.728;23.256;2023-07-29T12:42:08;0.98;;;0.80;;
57800;SDS011;43627;42.728;23.256;2023-07-29T12:44:36;1.33;;;0.90;;
57800;SDS011;43627;42.728;23.256;2023-07-29T12:47:05;1.27;;;0.95;;
57800;SDS011;43627;42.728;23.256;2023-07-29T12:49:32;1.42;;;1.15;;
57800;SDS011;43627;42.728;23.256;2023-07-29T12:51:59;2.45;;;1.20;;
57800;SDS011;43627;42.728;23.256;2023-07-29T12:54:26;1.10;;;0.80;;
57800;SDS011;43627;42.728;23.256;2023-07-29T12:56:53;1.25;;;1.13;;
57800;SDS011;43627;42.728;23.256;2023-07-29T12:59:20;1.60;;;0.80;;
57800;SDS011;43627;42.728;23.256;2023-07-29T13:01:47;1.42;;;1.10;;
57800;SDS011;43627;42.728;23.256;2023-07-29T13:04:14;1.00;;;0.90;;
57800;SDS011;43627;42.728;23.256;2023-07-29T13:06:41;3.13;;;2.15;;
57800;SDS011;43627;42.728;23.256;2023-07-29T13:09:07;0.95;;;0.82;;
57800;SDS011;43627;42.728;23.256;2023-07-29T13:11:34;1.13;;;0.70;;
57800;SDS011;43627;42.728;23.256;2023-07-29T13:14:01;1.88;;;1.40;;
57800;SDS011;43627;42.728;23.256;2023-07-29T13:16:28;1.45;;;1.00;;
57800;SDS011;43627;42.728;23.256;2023-07-29T13:18:55;1.83;;;0.80;;
57800;SDS011;43627;42.728;23.256;2023-07-29T13:21:22;2.22;;;1.95;;
57800;SDS011;43627;42.728;23.256;2023-07-29T13:23:49;1.30;;;1.20;;
57800;SDS011;43627;42.728;23.256;2023-07-29T13:26:16;1.20;;;1.10;;
57800;SDS011;43627;42.728;23.256;2023-07-29T13:28:43;3.33;;;1.75;;
57800;SDS011;43627;42.728;23.256;2023-07-29T13:31:10;2.83;;;1.55;;
57800;SDS011;43627;42.728;23.256;2023-07-29T13:33:37;1.58;;;1.00;;
57800;SDS011;43627;42.728;23.256;2023-07-29T13:36:03;2.20;;;1.60;;
57800;SDS011;43627;42.728;23.256;2023-07-29T13:38:31;2.10;;;1.50;;
57800;SDS011;43627;42.728;23.256;2023-07-29T13:40:58;1.98;;;1.10;;
57800;SDS011;43627;42.728;23.256;2023-07-29T13:43:24;1.25;;;0.90;;
57800;SDS011;43627;42.728;23.256;2023-07-29T13:45:51;1.70;;;1.08;;
57800;SDS011;43627;42.728;23.256;2023-07-29T13:48:18;1.48;;;1.08;;
57800;SDS011;43627;42.728;23.256;2023-07-29T13:50:46;1.92;;;1.20;;
57800;SDS011;43627;42.728;23.256;2023-07-29T13:53:13;1.45;;;1.13;;
57800;SDS011;43627;42.728;23.256;2023-07-29T13:55:39;0.98;;;0.90;;
57800;SDS011;43627;42.728;23.256;2023-07-29T13:58:06;1.92;;;1.02;;
57800;SDS011;43627;42.728;23.256;2023-07-29T14:00:33;1.90;;;1.23;;
57800;SDS011;43627;42.728;23.256;2023-07-29T14:02:59;1.88;;;1.20;;
57800;SDS011;43627;42.728;23.256;2023-07-29T14:05:26;1.48;;;0.73;;
57800;SDS011;43627;42.728;23.256;2023-07-29T14:07:53;3.30;;;1.83;;
57800;SDS011;43627;42.728;23.256;2023-07-29T14:10:20;2.13;;;1.10;;
57800;SDS011;43627;42.728;23.256;2023-07-29T14:12:46;1.88;;;1.15;;
57800;SDS011;43627;42.728;23.256;2023-07-29T14:15:13;1.95;;;1.60;;
57800;SDS011;43627;42.728;23.256;2023-07-29T14:17:40;1.25;;;1.08;;
57800;SDS011;43627;42.728;23.256;2023-07-29T14:20:06;1.75;;;1.65;;
57800;SDS011;43627;42.728;23.256;2023-07-29T14:22:33;1.38;;;1.10;;
57800;SDS011;43627;42.728;23.256;2023-07-29T14:25:00;1.10;;;1.00;;
57800;SDS011;43627;42.728;23.256;2023-07-29T14:27:27;1.30;;;1.20;;
57800;SDS011;43627;42.728;23.256;2023-07-29T14:29:54;1.05;;;0.95;;
57800;SDS011;43627;42.728;23.256;2023-07-29T14:32:20;1.13;;;1.02;;
57800;SDS011;43627;42.728;23.256;2023-07-29T14:34:49;1.08;;;0.98;;
57800;SDS011;43627;42.728;23.256;2023-07-29T14:37:16;1.77;;;1.20;;
57800;SDS011;43627;42.728;23.256;2023-07-29T14:39:43;2.40;;;1.00;;
57800;SDS011;43627;42.728;23.256;2023-07-29T14:42:09;2.20;;;1.30;;
57800;SDS011;43627;42.728;23.256;2023-07-29T14:44:36;1.13;;;0.90;;
57800;SDS011;43627;42.728;23.256;2023-07-29T14:47:03;1.52;;;1.17;;
57800;SDS011;43627;42.728;23.256;2023-07-29T14:49:30;1.02;;;0.93;;
57800;SDS011;43627;42.728;23.256;2023-07-29T14:51:57;3.95;;;1.30;;
57800;SDS011;43627;42.728;23.256;2023-07-29T14:54:23;1.20;;;1.10;;
57800;SDS011;43627;42.728;23.256;2023-07-29T14:56:50;3.15;;;2.22;;
57800;SDS011;43627;42.728;23.256;2023-07-29T14:59:17;1.20;;;1.02;;
57800;SDS011;43627;42.728;23.256;2023-07-29T15:01:44;1.98;;;1.15;;
57800;SDS011;43627;42.728;23.256;2023-07-29T15:04:10;0.95;;;0.93;;